Time;durP1;ratioP1;P1;durP2;ratioP2;P2;SDS_P1;SDS_P2;PMS_P1;PMS_P2;Temp;Humidity;BMP_temperature;BMP_pressure;BME280_temperature;BME280_humidity;BME280_pressure;Samples;Min_cycle;Max_cycle;Signal;HPM_P1;HPM_P2
2022/09/10 00:01:27;;;;;;;15.25;10.75;;;;;;;14.29;80.70;101271.17;1678280;83;21009;-86
2022/09/10 00:03:54;;;;;;;15.90;9.90;;;;;;;14.27;80.64;101267.16;1681156;83;21013;-86
2022/09/10 00:06:24;;;;;;;15.90;11.28;;;;;;;14.27;80.57;101263.63;1681570;83;21425;-86
2022/09/10 00:08:51;;;;;;;12.63;10.23;;;;;;;14.25;80.50;101262.72;1681412;83;21674;-86
2022/09/10 00:11:19;;;;;;;11.22;9.75;;;;;;;14.25;80.59;101262.28;1679310;84;21051;-86
2022/09/10 00:13:46;;;;;;;11.03;9.70;;;;;;;14.25;80.53;101264.92;1630862;86;21021;-85
2022/09/10 00:16:13;;;;;;;10.32;9.18;;;;;;;14.26;80.55;101266.69;1620083;86;21796;-85
2022/09/10 00:18:40;;;;;;;9.95;8.95;;;;;;;14.25;80.51;101268.02;1609413;86;21074;-85
2022/09/10 00:21:11;;;;;;;11.85;9.43;;;;;;;14.20;80.43;101266.59;1626270;86;21828;-86
2022/09/10 00:23:37;;;;;;;11.18;9.58;;;;;;;14.18;80.46;101266.55;1624145;86;21019;-86
2022/09/10 00:26:24;;;;;;;13.20;9.83;;;;;;;14.18;80.59;101268.31;1624636;86;21074;-86
2022/09/10 00:28:53;;;;;;;12.60;10.75;;;;;;;14.20;80.60;101266.59;1624689;86;21063;-85
2022/09/10 00:31:20;;;;;;;11.97;10.70;;;;;;;14.17;80.51;101267.44;1624235;86;21066;-85
2022/09/10 00:33:48;;;;;;;14.55;11.18;;;;;;;14.16;80.59;101261.66;1623104;86;21757;-85
2022/09/10 00:36:23;;;;;;;11.00;9.90;;;;;;;14.18;80.63;101263.91;1624680;86;21016;-85
2022/09/10 00:38:50;;;;;;;12.33;10.38;;;;;;;14.19;80.65;101257.77;1623347;86;21409;-85
2022/09/10 00:41:18;;;;;;;12.33;9.80;;;;;;;14.16;80.59;101256.38;1617563;86;21000;-85
2022/09/10 00:43:48;;;;;;;11.55;10.38;;;;;;;14.15;80.66;101252.36;1624712;86;21071;-85
2022/09/10 00:46:24;;;;;;;12.53;11.00;;;;;;;14.13;80.67;101248.39;1622961;86;21742;-85
2022/09/10 00:48:51;;;;;;;14.13;9.95;;;;;;;14.14;80.66;101258.54;1612276;86;21115;-85
2022/09/10 00:51:18;;;;;;;13.65;10.32;;;;;;;14.16;80.69;101263.43;1608088;87;21618;-85
2022/09/10 00:53:45;;;;;;;12.30;11.10;;;;;;;14.15;80.67;101255.02;1621655;86;21715;-85
2022/09/10 00:56:13;;;;;;;11.57;10.13;;;;;;;14.14;80.66;101254.56;1620290;86;21154;-85
2022/09/10 00:58:40;;;;;;;12.13;10.78;;;;;;;14.11;80.54;101248.77;1632774;86;23321;-86
2022/09/10 01:01:06;;;;;;;11.70;10.43;;;;;;;14.08;80.53;101245.20;1633372;86;22287;-86
2022/09/10 01:03:33;;;;;;;16.37;11.18;;;;;;;14.07;80.59;101244.28;1620479;86;21133;-86
2022/09/10 01:06:02;;;;;;;11.85;10.55;;;;;;;14.07;80.64;101229.73;1620899;86;22011;-86
2022/09/10 01:08:28;;;;;;;13.03;10.68;;;;;;;14.06;80.61;101238.55;1622535;86;21126;-86
2022/09/10 01:11:10;;;;;;;11.78;10.58;;;;;;;14.08;80.65;101236.81;1622856;86;21748;-85
2022/09/10 01:13:59;;;;;;;12.33;10.35;;;;;;;14.09;80.71;101239.91;1624515;86;21414;-86
2022/09/10 01:16:47;;;;;;;11.53;10.35;;;;;;;14.08;80.55;101246.08;1624433;86;21032;-85
2022/09/10 01:20:06;;;;;;;16.45;10.78;;;;;;;14.04;80.56;101237.63;1624386;86;21110;-85
2022/09/10 01:22:51;;;;;;;11.93;10.28;;;;;;;13.99;80.66;101226.06;1623966;86;21433;-85
2022/09/10 01:25:39;;;;;;;;;;;;;;;14.02;80.67;101227.86;1626777;86;21753;-85
2022/09/10 01:28:14;;;;;;;11.83;10.60;;;;;;;13.98;80.73;101231.79;1635161;86;21284;-85
2022/09/10 01:30:43;;;;;;;13.80;10.88;;;;;;;13.99;80.79;101228.70;1624325;86;21011;-85
2022/09/10 01:33:33;;;;;;;12.30;10.50;;;;;;;13.97;80.77;101229.11;1621940;86;21526;-86
2022/09/10 01:36:02;;;;;;;14.13;10.88;;;;;;;13.95;80.77;101229.52;1624447;86;21475;-86
2022/09/10 01:38:32;;;;;;;12.28;10.98;;;;;;;13.94;80.84;101219.78;1608895;87;21751;-86
2022/09/10 01:40:59;;;;;;;14.90;11.53;;;;;;;13.96;80.91;101218.05;1598360;87;21003;-86
2022/09/10 01:43:26;;;;;;;16.15;12.30;;;;;;;13.97;80.96;101215.44;1621527;86;21062;-86
2022/09/10 01:46:45;;;;;;;17.35;12.43;;;;;;;13.97;80.93;101211.47;1614913;87;21043;-86
2022/09/10 01:49:35;;;;;;;14.50;12.70;;;;;;;13.97;80.92;101213.23;1618676;86;21030;-86
2022/09/10 01:52:27;;;;;;;15.70;13.40;;;;;;;13.93;80.94;101201.69;1623625;86;23128;-86
2022/09/10 01:54:59;;;;;;;14.58;13.08;;;;;;;13.93;80.96;101204.78;1609431;86;21525;-85
2022/09/10 01:57:40;;;;;;;16.45;13.20;;;;;;;13.92;81.02;101205.19;1619298;86;21435;-86
2022/09/10 02:00:11;;;;;;;15.60;13.15;;;;;;;13.92;81.07;101198.57;1624125;86;21617;-85
2022/09/10 02:02:59;;;;;;;14.58;12.98;;;;;;;13.93;81.13;101196.84;1624301;86;21474;-85
2022/09/10 02:05:28;;;;;;;16.05;13.08;;;;;;;13.93;81.08;101195.52;1621929;86;21704;-85
2022/09/10 02:07:59;;;;;;;15.85;12.75;;;;;;;13.94;81.11;101194.19;1623337;86;21517;-85
2022/09/10 02:10:25;;;;;;;15.53;12.10;;;;;;;13.95;81.11;101198.64;1601516;87;21879;-85
2022/09/10 02:12:52;;;;;;;14.23;12.10;;;;;;;13.95;81.07;101195.11;1621794;86;21426;-85
2022/09/10 02:15:20;;;;;;;14.65;12.45;;;;;;;13.91;80.99;101194.16;1626309;86;21043;-86
2022/09/10 02:17:48;;;;;;;11.78;10.58;;;;;;;13.89;81.05;101190.59;1622002;86;22461;-86
2022/09/10 02:20:14;;;;;;;17.25;11.65;;;;;;;13.88;81.11;101190.56;1624412;86;21449;-86
2022/09/10 02:22:45;;;;;;;15.03;11.10;;;;;;;13.90;81.15;101187.51;1625330;86;21024;-86
2022/09/10 02:25:12;;;;;;;12.68;10.78;;;;;;;13.90;81.10;101191.48;1623606;86;21079;-86
2022/09/10 02:27:38;;;;;;;15.00;10.38;;;;;;;13.90;81.20;101187.06;1630722;86;21047;-86
2022/09/10 02:30:07;;;;;;;12.18;10.60;;;;;;;13.92;81.20;101192.39;1624355;86;22902;-86
2022/09/10 02:32:33;;;;;;;12.13;10.70;;;;;;;13.92;81.16;101192.39;1624374;86;21007;-86
2022/09/10 02:35:00;;;;;;;11.93;10.72;;;;;;;13.93;81.23;101188.91;1621922;86;21015;-86
2022/09/10 02:37:27;;;;;;;11.73;10.28;;;;;;;13.94;81.22;101187.58;1624249;86;21027;-86
2022/09/10 02:39:54;;;;;;;14.43;10.60;;;;;;;13.92;81.13;101193.72;1622110;86;21049;-86
2022/09/10 02:42:21;;;;;;;11.57;10.38;;;;;;;13.93;81.22;101200.81;1624573;86;21736;-86
2022/09/10 02:44:48;;;;;;;11.80;10.53;;;;;;;13.95;81.23;101197.75;1624352;86;21043;-86
2022/09/10 02:47:15;;;;;;;17.05;11.30;;;;;;;13.94;81.15;101192.87;1624388;86;21529;-86
2022/09/10 02:49:42;;;;;;;13.55;10.85;;;;;;;13.92;81.22;101185.78;1622282;86;21434;-87
2022/09/10 02:52:08;;;;;;;15.03;10.78;;;;;;;13.90;81.17;101187.06;1622230;86;21771;-87
2022/09/10 02:54:35;;;;;;;12.23;10.48;;;;;;;13.89;81.19;101187.03;1624868;86;21795;-86
2022/09/10 02:57:02;;;;;;;11.53;10.32;;;;;;;13.92;81.33;101183.13;1624691;86;21467;-86
2022/09/10 02:59:31;;;;;;;13.22;10.30;;;;;;;13.93;81.32;101184.93;1624883;86;21056;-86
2022/09/10 03:01:57;;;;;;;11.57;10.40;;;;;;;13.94;81.38;101187.58;1624674;86;21208;-86
2022/09/10 03:04:24;;;;;;;13.72;10.20;;;;;;;13.96;81.36;101182.32;1622541;86;21426;-86
2022/09/10 03:06:52;;;;;;;11.53;10.25;;;;;;;13.97;81.31;101177.50;1624881;86;21719;-86
2022/09/10 03:09:18;;;;;;;13.15;10.35;;;;;;;13.97;81.36;101177.06;1624782;86;21060;-86
2022/09/10 03:11:45;;;;;;;13.48;10.32;;;;;;;13.96;81.27;101176.62;1611222;87;21022;-86
2022/09/10 03:14:18;;;;;;;11.70;9.03;;;;;;;13.96;81.33;101170.41;1617255;86;21019;-85
2022/09/10 03:16:40;;;;;;;15.35;11.28;;;;;;;13.94;81.24;101168.17;1608194;87;21042;-86
2022/09/10 03:19:08;;;;;;;10.82;9.63;;;;;;;13.92;81.32;101165.49;1618339;86;21746;-85
2022/09/10 03:21:34;;;;;;;11.28;10.13;;;;;;;13.92;81.29;101169.91;1624836;86;21059;-86
2022/09/10 03:24:02;;;;;;;13.03;10.45;;;;;;;13.90;81.31;101162.37;1624973;86;21454;-85
2022/09/10 03:26:29;;;;;;;12.13;10.53;;;;;;;13.89;81.31;101159.25;1622697;86;21561;-86
2022/09/10 03:28:56;;;;;;;11.33;10.23;;;;;;;13.89;81.39;101160.16;1624903;86;21034;-86
2022/09/10 03:31:22;;;;;;;11.53;10.32;;;;;;;13.91;81.47;101165.49;1624829;86;21745;-86
2022/09/10 03:33:49;;;;;;;12.93;10.90;;;;;;;13.93;81.46;101167.73;1624897;86;21016;-86
2022/09/10 03:36:17;;;;;;;11.35;10.25;;;;;;;13.93;81.40;101166.41;1624596;86;21039;-86
2022/09/10 03:38:43;;;;;;;13.22;10.95;;;;;;;13.92;81.36;101164.16;1623534;86;21076;-86
2022/09/10 03:41:10;;;;;;;11.90;10.78;;;;;;;13.90;81.47;101167.66;1618912;85;21065;-86
2022/09/10 03:43:37;;;;;;;12.00;10.18;;;;;;;13.94;81.50;101166.84;1636855;85;21742;-86
2022/09/10 03:46:04;;;;;;;13.28;10.95;;;;;;;13.95;81.53;101162.91;1636749;85;21059;-86
2022/09/10 03:48:31;;;;;;;11.85;10.45;;;;;;;13.97;81.52;101164.27;1636615;85;21019;-86
2022/09/10 03:50:58;;;;;;;11.63;10.43;;;;;;;13.98;81.46;101164.30;1636415;85;21027;-86
2022/09/10 03:53:25;;;;;;;12.53;11.22;;;;;;;14.00;81.46;101162.98;1646005;84;21049;-86
2022/09/10 03:55:54;;;;;;;13.40;11.10;;;;;;;14.02;81.53;101167.89;1638701;86;21859;-86
2022/09/10 03:58:20;;;;;;;11.83;10.63;;;;;;;14.04;81.52;101165.25;1634774;86;21039;-86
2022/09/10 04:00:47;;;;;;;12.10;10.78;;;;;;;14.07;81.52;101158.70;1638761;86;21018;-85
2022/09/10 04:03:15;;;;;;;13.32;11.93;;;;;;;14.06;81.41;101165.75;1623298;86;21034;-86
2022/09/10 04:05:45;;;;;;;12.35;11.12;;;;;;;14.05;81.40;101161.31;1639017;85;21058;-86
2022/09/10 04:08:12;;;;;;;13.40;11.65;;;;;;;14.06;81.39;101164.84;1638768;86;23925;-85
2022/09/10 04:10:49;;;;;;;13.30;11.83;;;;;;;14.06;81.41;101162.19;1638937;85;21461;-85
2022/09/10 04:13:16;;;;;;;12.95;10.70;;;;;;;14.07;81.39;101160.02;1621570;86;21062;-86
2022/09/10 04:15:45;;;;;;;12.95;11.50;;;;;;;14.08;81.41;101159.17;1640308;85;21543;-86
2022/09/10 04:18:11;;;;;;;13.62;11.43;;;;;;;14.11;81.46;101160.08;1635468;87;21105;-85
2022/09/10 04:20:39;;;;;;;13.25;12.00;;;;;;;14.12;81.41;101162.32;1639078;85;21750;-85
2022/09/10 04:23:06;;;;;;;13.32;11.97;;;;;;;14.10;81.28;101161.41;1638971;85;20961;-85
2022/09/10 04:25:32;;;;;;;13.53;11.22;;;;;;;14.09;81.31;101161.81;1638937;87;21017;-85
2022/09/10 04:28:00;;;;;;;13.75;12.00;;;;;;;14.10;81.35;101162.29;1638953;86;21022;-85
2022/09/10 04:30:27;;;;;;;13.03;11.57;;;;;;;14.14;81.41;101168.53;1638892;86;21099;-86
2022/09/10 04:32:54;;;;;;;12.93;11.50;;;;;;;14.14;81.36;101162.80;1638710;85;21747;-85
2022/09/10 04:35:21;;;;;;;12.93;10.78;;;;;;;14.15;81.29;101166.32;1638907;86;21010;-85
2022/09/10 04:37:48;;;;;;;15.10;12.15;;;;;;;14.11;81.23;101163.17;1638886;86;21014;-85
2022/09/10 04:40:14;;;;;;;12.13;10.93;;;;;;;14.09;81.15;101162.25;1639144;85;21090;-87
2022/09/10 04:42:42;;;;;;;15.98;12.07;;;;;;;14.10;81.25;101166.70;1639004;85;21086;-85
2022/09/10 04:45:09;;;;;;;13.25;11.85;;;;;;;14.09;81.26;101164.91;1638682;85;21743;-85
2022/09/10 04:47:36;;;;;;;12.60;11.30;;;;;;;14.10;81.28;101160.08;1638668;86;21093;-87
2022/09/10 04:50:05;;;;;;;13.00;11.70;;;;;;;14.10;81.21;101156.11;1639309;85;21119;-86
2022/09/10 04:52:32;;;;;;;12.50;11.00;;;;;;;14.09;81.27;101163.14;1635178;85;21026;-87
2022/09/10 04:54:58;;;;;;;12.88;11.57;;;;;;;14.10;81.26;101162.73;1632649;86;21122;-87
2022/09/10 04:57:26;;;;;;;12.50;11.20;;;;;;;14.11;81.32;101158.76;1635288;86;21793;-91
2022/09/10 04:59:53;;;;;;;12.93;11.60;;;;;;;14.14;81.38;101153.97;1638077;85;21027;-87
2022/09/10 05:02:20;;;;;;;15.18;12.55;;;;;;;14.15;81.37;101151.35;1638795;86;21159;-91
2022/09/10 05:04:46;;;;;;;16.27;11.90;;;;;;;14.16;81.34;101150.47;1637777;85;21105;-86
2022/09/10 05:07:14;;;;;;;14.20;12.60;;;;;;;14.16;81.27;101153.12;1629455;86;21104;-87
2022/09/10 05:09:42;;;;;;;14.38;12.88;;;;;;;14.19;81.38;101149.66;1621422;86;21805;-87
2022/09/10 05:12:12;;;;;;;16.27;12.40;;;;;;;14.19;81.33;101139.95;1631046;84;21124;-88
2022/09/10 05:14:39;;;;;;;14.33;12.07;;;;;;;14.21;81.36;101147.92;1649397;84;21121;-88
2022/09/10 05:17:06;;;;;;;12.70;11.35;;;;;;;14.20;81.35;101147.00;1689006;83;21048;-88
2022/09/10 05:19:33;;;;;;;15.68;12.37;;;;;;;14.22;81.36;101148.80;1689283;83;21041;-86
2022/09/10 05:22:00;;;;;;;13.65;12.25;;;;;;;14.21;81.37;101147.92;1702785;83;22415;-86
2022/09/10 05:24:26;;;;;;;13.20;11.48;;;;;;;14.21;81.47;101145.27;1692903;83;21630;-84
2022/09/10 05:26:53;;;;;;;14.25;11.95;;;;;;;14.25;81.52;101149.74;1686474;83;21087;-84
2022/09/10 05:29:20;;;;;;;15.20;11.75;;;;;;;14.22;81.38;101149.68;1681381;83;22599;-84
2022/09/10 05:31:47;;;;;;;11.78;10.55;;;;;;;14.20;81.40;101158.92;1668376;83;21613;-83
2022/09/10 05:37:28;;;;;;;13.10;11.75;;;;;;;14.18;81.60;101154.03;1542569;89;21172;-84
2022/09/10 05:40:03;;;;;;;13.68;12.25;;;;;;;14.24;81.60;101155.89;1610661;87;21108;-86
2022/09/10 05:42:30;;;;;;;15.05;12.13;;;;;;;14.22;81.51;101152.77;1611499;87;21016;-84
2022/09/10 05:44:57;;;;;;;14.47;12.03;;;;;;;14.19;81.57;101160.24;1628112;87;21082;-85
2022/09/10 05:47:24;;;;;;;12.68;11.38;;;;;;;14.21;81.70;101155.86;1584442;89;21761;-84
2022/09/10 05:49:50;;;;;;;14.87;12.13;;;;;;;14.20;81.57;101161.56;1589549;88;21990;-84
2022/09/10 05:52:18;;;;;;;13.00;11.60;;;;;;;14.17;81.59;101157.56;1584655;88;21087;-84
2022/09/10 05:54:45;;;;;;;15.13;12.63;;;;;;;14.17;81.63;101157.56;1555813;90;21061;-85
2022/09/10 05:57:13;;;;;;;15.03;12.23;;;;;;;14.17;81.75;101156.64;1530832;91;21068;-82
2022/09/10 05:59:41;;;;;;;12.07;10.80;;;;;;;14.20;81.85;101158.92;1556448;89;21717;-82
2022/09/10 06:02:13;;;;;;;12.82;10.28;;;;;;;14.23;81.81;101160.74;1557919;89;21035;-84
2022/09/10 06:04:42;;;;;;;16.10;11.90;;;;;;;14.26;81.95;101159.89;1550757;90;21447;-82
2022/09/10 06:07:10;;;;;;;13.08;11.15;;;;;;;14.30;81.86;101167.93;1556067;89;21454;-83
2022/09/10 06:09:45;;;;;;;13.85;10.70;;;;;;;14.30;81.75;101168.34;1555942;92;21049;-82
2022/09/10 06:12:12;;;;;;;16.37;12.10;;;;;;;14.32;81.86;101170.58;1554168;92;22883;-82
2022/09/10 06:14:39;;;;;;;14.23;11.75;;;;;;;14.37;81.92;101169.78;1554647;90;21046;-85
2022/09/10 06:17:07;;;;;;;13.78;12.33;;;;;;;14.39;81.87;101163.20;1551361;92;21060;-82
2022/09/10 06:19:34;;;;;;;14.90;12.05;;;;;;;14.39;81.81;101169.37;1555897;91;21062;-82
2022/09/10 06:22:00;;;;;;;12.53;11.22;;;;;;;14.43;81.83;101166.34;1562316;89;21059;-83
2022/09/10 06:24:27;;;;;;;13.98;11.93;;;;;;;14.49;81.94;101164.22;1576960;88;21753;-83
2022/09/10 06:26:54;;;;;;;15.30;11.78;;;;;;;14.56;81.79;101166.11;1608838;86;21030;-84
2022/09/10 06:29:21;;;;;;;14.33;11.45;;;;;;;14.58;81.82;101169.70;1598224;86;21018;-83
2022/09/10 06:31:48;;;;;;;13.00;11.60;;;;;;;14.67;81.80;101170.28;1623519;86;21491;-84
2022/09/10 06:34:17;;;;;;;16.25;12.13;;;;;;;14.70;81.66;101175.64;1611482;86;21098;-85
2022/09/10 06:36:45;;;;;;;16.10;12.28;;;;;;;14.74;81.75;101166.86;1611168;86;21842;-85
2022/09/10 06:39:13;;;;;;;16.73;13.00;;;;;;;14.82;81.67;101171.83;1620871;86;21520;-87
2022/09/10 06:41:41;;;;;;;14.38;12.85;;;;;;;14.88;81.50;101177.65;1622295;86;21066;-83
2022/09/10 06:44:09;;;;;;;14.87;13.28;;;;;;;14.89;81.42;101178.12;1619365;87;21504;-83
2022/09/10 06:46:36;;;;;;;18.42;12.82;;;;;;;14.91;81.27;101175.94;1618409;86;21133;-83
2022/09/10 06:49:04;;;;;;;17.92;14.28;;;;;;;14.95;81.38;101172.89;1610048;86;21709;-86
2022/09/10 06:51:31;;;;;;;17.07;14.00;;;;;;;15.00;81.32;101171.20;1618199;86;21088;-88
2022/09/10 06:54:00;;;;;;;15.32;13.13;;;;;;;15.02;81.18;101181.84;1629481;86;21274;-87
2022/09/10 06:56:30;;;;;;;16.95;12.90;;;;;;;15.04;81.24;101175.67;1619796;86;21587;-87
2022/09/10 06:58:57;;;;;;;13.78;12.23;;;;;;;15.07;81.13;101174.41;1622836;86;21117;-88
2022/09/10 07:01:24;;;;;;;13.88;11.63;;;;;;;15.08;81.00;101177.48;1620096;86;21642;-88
2022/09/10 07:04:00;;;;;;;14.83;11.73;;;;;;;15.11;80.99;101177.98;1619364;86;21572;-86
2022/09/10 07:06:24;;;;;;;15.40;11.63;;;;;;;15.11;81.00;101177.98;1621410;86;21415;-86
2022/09/10 07:08:55;;;;;;;15.20;13.58;;;;;;;15.15;81.02;101175.83;1622706;86;21066;-86
2022/09/10 07:11:23;;;;;;;13.10;10.82;;;;;;;15.18;81.03;101172.31;1623870;86;21150;-86
2022/09/10 07:13:51;;;;;;;13.13;10.93;;;;;;;15.22;80.87;101172.39;1622618;86;21810;-88
2022/09/10 07:16:19;;;;;;;13.35;10.98;;;;;;;15.24;80.80;101167.07;1618280;86;22146;-88
2022/09/10 07:18:50;;;;;;;12.58;10.90;;;;;;;15.27;80.81;101169.33;1622112;86;21074;-87
2022/09/10 07:21:17;;;;;;;11.35;10.13;;;;;;;15.34;80.85;101163.68;1622715;86;21734;-87
2022/09/10 07:23:47;;;;;;;14.03;11.43;;;;;;;15.39;80.62;101169.02;1621127;86;22256;-87
2022/09/10 07:26:15;;;;;;;13.10;11.57;;;;;;;15.34;80.51;101154.40;1618166;86;22616;-87
2022/09/10 07:28:42;;;;;;;12.28;10.98;;;;;;;15.47;80.65;101162.07;1622919;86;21090;-86
2022/09/10 07:31:27;;;;;;;12.28;10.60;;;;;;;15.62;80.77;101166.22;1619116;86;21032;-88
2022/09/10 07:33:56;;;;;;;14.55;10.78;;;;;;;15.74;80.65;101166.36;1622437;86;21102;-85
2022/09/10 07:36:23;;;;;;;12.20;10.88;;;;;;;15.81;80.28;101161.14;1620258;86;21117;-83
2022/09/10 07:38:54;;;;;;;13.72;10.65;;;;;;;15.86;80.18;101165.62;1603254;87;21866;-86
2022/09/10 07:41:21;;;;;;;15.23;10.32;;;;;;;15.93;80.17;101160.83;1621486;86;21090;-83
2022/09/10 07:43:49;;;;;;;11.55;10.35;;;;;;;15.97;79.96;101161.72;1622855;86;21106;-83
2022/09/10 07:46:19;;;;;;;13.55;10.75;;;;;;;16.10;80.19;101164.05;1604907;86;21166;-83
2022/09/10 07:49:16;;;;;;;13.90;10.55;;;;;;;16.18;79.86;101165.44;1618366;86;22433;-85
2022/09/10 07:51:43;;;;;;;11.18;9.50;;;;;;;16.25;79.47;101166.83;1619153;86;23233;-83
2022/09/10 07:54:10;;;;;;;12.30;9.95;;;;;;;16.24;78.93;101172.16;1644896;85;21034;-83
2022/09/10 07:56:37;;;;;;;14.15;11.68;;;;;;;16.21;78.97;101172.13;1687708;83;21596;-83
2022/09/10 07:59:04;;;;;;;14.70;11.25;;;;;;;16.18;78.78;101171.67;1687354;84;21093;-86
2022/09/10 08:01:31;;;;;;;11.97;10.20;;;;;;;16.19;78.81;101172.09;1687798;83;21056;-86
2022/09/10 08:03:58;;;;;;;17.45;11.25;;;;;;;16.19;78.71;101174.76;1687058;83;21744;-88
2022/09/10 08:06:25;;;;;;;12.40;10.18;;;;;;;16.19;78.57;101172.55;1683054;83;21064;-86
2022/09/10 08:08:52;;;;;;;13.65;10.53;;;;;;;16.17;78.38;101171.20;1683584;83;21080;-86
2022/09/10 08:11:19;;;;;;;12.07;10.50;;;;;;;16.12;78.36;101171.59;1683411;84;21092;-88
2022/09/10 08:13:50;;;;;;;13.48;11.53;;;;;;;16.13;78.41;101178.25;1649195;84;21140;-87
2022/09/10 08:16:20;;;;;;;11.15;9.95;;;;;;;16.11;78.37;101178.67;1610615;87;22297;-87
2022/09/10 08:18:47;;;;;;;17.25;11.70;;;;;;;16.09;78.29;101182.20;1622127;86;21103;-87
2022/09/10 08:21:14;;;;;;;14.03;11.38;;;;;;;16.09;78.30;101177.77;1609935;87;21100;-88
2022/09/10 08:23:42;;;;;;;16.75;12.93;;;;;;;16.06;78.15;101182.16;1638824;86;21109;-87
2022/09/10 08:26:09;;;;;;;20.57;12.78;;;;;;;16.03;78.13;101176.40;1637197;86;21061;-88
2022/09/10 08:28:36;;;;;;;15.38;11.88;;;;;;;15.97;78.19;101174.98;1630710;85;21756;-87
2022/09/10 08:31:08;;;;;;;13.03;11.10;;;;;;;15.99;78.08;101175.92;1629846;86;21121;-87
2022/09/10 08:33:35;;;;;;;13.40;11.00;;;;;;;15.99;78.17;101178.58;1630000;85;21133;-87
2022/09/10 08:36:03;;;;;;;20.40;16.93;;;;;;;15.99;78.13;101179.91;1622450;85;21149;-87
2022/09/10 08:38:38;;;;;;;18.00;14.05;;;;;;;16.01;78.14;101174.58;1626688;85;22322;-86
2022/09/10 08:41:38;;;;;;;17.70;13.00;;;;;;;15.99;77.99;101176.34;1634653;86;21795;-87
2022/09/10 08:44:57;;;;;;;16.45;12.60;;;;;;;15.94;78.00;101179.84;1634535;85;21027;-87
2022/09/10 08:47:56;;;;;;;12.37;10.68;;;;;;;15.94;78.13;101174.53;1638915;85;21047;-87
2022/09/10 08:50:58;;;;;;;16.75;11.50;;;;;;;15.98;78.00;101173.25;1638863;85;21081;-87
2022/09/10 08:53:46;;;;;;;16.30;11.55;;;;;;;16.01;78.09;101173.26;1637395;85;21145;-85
2022/09/10 08:56:17;;;;;;;12.30;11.00;;;;;;;16.04;77.94;101174.17;1661149;83;21838;-86
2022/09/10 08:59:02;;;;;;;12.90;11.50;;;;;;;16.08;77.89;101169.34;1639203;86;21042;-87
2022/09/10 09:01:33;;;;;;;13.83;11.70;;;;;;;16.13;77.97;101162.76;1621618;86;21058;-87
2022/09/10 09:04:02;;;;;;;19.12;15.45;;;;;;;16.21;77.95;101157.06;1646858;86;21353;-87
2022/09/10 09:06:50;;;;;;;29.40;19.37;;;;;;;16.30;77.91;101160.24;1639022;86;21059;-87
2022/09/10 09:09:17;;;;;;;23.90;18.52;;;;;;;16.40;77.98;101154.56;1639741;86;21756;-87
2022/09/10 09:12:08;;;;;;;25.62;19.02;;;;;;;16.56;77.88;101152.47;1637124;86;21125;-88
2022/09/10 09:15:04;;;;;;;31.27;27.87;;;;;;;16.73;77.81;101143.72;1648703;84;21176;-87
2022/09/10 09:17:54;;;;;;;15.98;13.93;;;;;;;16.89;77.32;101152.24;1640570;85;21089;-87
2022/09/10 09:20:46;;;;;;;14.40;12.13;;;;;;;16.99;76.95;101153.20;1640786;85;21096;-87
2022/09/10 09:23:28;;;;;;;14.68;11.75;;;;;;;17.03;76.69;101153.22;1647559;85;21732;-88
2022/09/10 09:26:05;;;;;;;15.58;13.03;;;;;;;17.03;76.35;101151.89;1641705;85;21535;-87
2022/09/10 09:28:58;;;;;;;14.18;12.70;;;;;;;17.06;76.30;101148.34;1640814;85;21137;-86
2022/09/10 09:31:35;;;;;;;19.67;15.27;;;;;;;17.04;76.23;101144.38;1639621;85;21125;-89
2022/09/10 09:34:25;;;;;;;20.20;15.25;;;;;;;17.01;75.99;101150.99;1633588;86;21128;-87
2022/09/10 09:36:53;;;;;;;31.48;25.55;;;;;;;16.90;75.88;101150.05;1634138;86;21823;-87
2022/09/10 09:39:34;;;;;;;23.00;19.80;;;;;;;16.91;76.01;101149.15;1642475;85;21081;-90
2022/09/10 09:42:29;;;;;;;18.02;15.13;;;;;;;16.91;75.94;101154.47;1596625;86;21643;-88
2022/09/10 09:45:22;;;;;;;14.45;12.80;;;;;;;16.92;75.81;101154.93;1640219;85;21949;-90
2022/09/10 09:47:49;;;;;;;17.77;12.67;;;;;;;16.84;75.49;101150.91;1619475;86;21603;-89
2022/09/10 09:50:19;;;;;;;12.50;11.10;;;;;;;16.71;75.47;101153.89;1636402;86;21596;-89
2022/09/10 09:52:49;;;;;;;16.60;14.83;;;;;;;16.63;75.58;101155.63;1637025;86;21622;-90
2022/09/10 09:55:45;;;;;;;14.18;11.97;;;;;;;16.56;75.62;101154.25;1658767;84;21132;-89
2022/09/10 09:58:25;;;;;;;15.10;11.33;;;;;;;16.46;75.66;101151.52;1634600;85;21943;-88
2022/09/10 10:00:57;;;;;;;14.23;12.43;;;;;;;16.46;75.93;101140.89;1635473;85;21073;-87
2022/09/10 10:03:26;;;;;;;16.23;12.53;;;;;;;16.44;76.01;101131.11;1631937;85;23235;-88
2022/09/10 10:06:04;;;;;;;14.30;11.73;;;;;;;16.59;76.06;101136.56;1636443;85;21090;-90
2022/09/10 10:08:54;;;;;;;16.85;12.25;;;;;;;16.64;75.96;101125.48;1626241;86;21067;-89
2022/09/10 10:11:21;;;;;;;14.15;11.65;;;;;;;16.78;76.08;101118.03;1637165;85;21035;-89
2022/09/10 10:13:51;;;;;;;13.28;11.33;;;;;;;17.00;76.07;101105.77;1640070;85;21165;-84
2022/09/10 10:16:38;;;;;;;13.35;11.33;;;;;;;17.19;75.76;101107.64;1637386;85;21826;-84
2022/09/10 10:19:02;;;;;;;14.38;11.33;;;;;;;17.40;75.72;101099.24;1635511;86;21276;-84
2022/09/10 10:21:39;;;;;;;12.58;11.00;;;;;;;17.62;75.09;101097.07;1636916;86;21117;-84
2022/09/10 10:24:04;;;;;;;14.20;12.30;;;;;;;17.78;74.75;101093.12;1634216;85;21129;-84
2022/09/10 10:26:33;;;;;;;14.30;11.63;;;;;;;17.91;74.20;101096.72;1636452;85;21124;-84
2022/09/10 10:29:07;;;;;;;12.15;10.85;;;;;;;17.86;73.86;101094.03;1640821;85;21791;-84
2022/09/10 10:31:42;;;;;;;11.95;10.75;;;;;;;17.92;73.78;101103.35;1613523;86;21509;-84
2022/09/10 10:34:17;;;;;;;13.78;10.72;;;;;;;17.90;73.59;101113.11;1638272;86;21070;-84
2022/09/10 10:37:08;;;;;;;14.20;11.68;;;;;;;17.92;73.52;101125.11;1638086;86;21019;-83
2022/09/10 10:40:24;;;;;;;15.78;11.50;;;;;;;17.82;73.31;101130.84;1645534;85;21050;-83
2022/09/10 10:43:09;;;;;;;13.15;11.75;;;;;;;17.60;73.24;101116.14;1587211;88;21236;-86
2022/09/10 10:45:56;;;;;;;12.10;10.60;;;;;;;17.58;73.36;101113.92;1629695;85;21097;-86
2022/09/10 10:49:25;;;;;;;;;;;;;;;;;;;;;
2022/09/10 10:52:06;;;;;;;16.15;13.15;;;;;;;17.72;73.67;101107.73;1635419;85;21184;-84
2022/09/10 10:54:44;;;;;;;12.65;11.12;;;;;;;17.69;72.92;101112.17;1608074;86;21608;-84
2022/09/10 10:57:51;;;;;;;13.22;11.53;;;;;;;17.65;72.76;101116.17;1637929;86;21776;-85
2022/09/10 11:00:19;;;;;;;15.85;13.78;;;;;;;17.63;73.11;101115.28;1682799;83;21155;-84
2022/09/10 11:03:14;;;;;;;14.25;12.75;;;;;;;17.62;73.05;101112.16;1624045;86;21054;-84
2022/09/10 11:05:46;;;;;;;16.80;13.90;;;;;;;17.54;73.02;101112.16;1637401;86;21291;-85
2022/09/10 11:08:24;;;;;;;14.70;13.10;;;;;;;17.38;72.84;101120.97;1636610;86;21476;-85
2022/09/10 11:11:17;;;;;;;13.25;11.95;;;;;;;17.24;73.06;101121.81;1634648;86;22433;-85
2022/09/10 11:13:57;;;;;;;12.70;11.50;;;;;;;17.10;73.08;101118.24;1544927;90;22073;-88
2022/09/10 11:32:59;;;;;;;13.10;11.68;;;;;;;16.70;73.86;101122.89;1504598;93;21176;-87
2022/09/10 11:35:35;;;;;;;12.15;10.82;;;;;;;16.67;73.81;101131.28;1490219;92;21174;-86
2022/09/10 11:38:57;;;;;;;15.05;12.85;;;;;;;16.52;73.67;101123.66;1501265;93;21178;-86
2022/09/10 11:41:41;;;;;;;13.40;11.93;;;;;;;16.44;73.96;101116.08;1482121;95;21166;-86
2022/09/10 11:44:39;;;;;;;14.98;12.55;;;;;;;16.47;74.18;101100.59;1474036;95;22606;-84
2022/09/10 11:47:18;;;;;;;13.28;11.90;;;;;;;16.61;74.25;101103.31;1478484;94;21195;-85
2022/09/10 11:50:02;;;;;;;14.85;12.50;;;;;;;16.72;74.31;101104.27;1488452;93;21183;-93
2022/09/10 11:52:30;;;;;;;16.62;14.65;;;;;;;16.81;74.27;101103.44;1475683;94;21558;-91
2022/09/10 11:55:03;;;;;;;13.53;12.10;;;;;;;16.93;74.20;101091.58;1495958;94;21190;-91
2022/09/10 11:57:47;;;;;;;13.80;12.40;;;;;;;17.04;74.04;101092.92;1491866;94;21966;-92